Time;durP1;ratioP1;P1;durP2;ratioP2;P2;SDS_P1;SDS_P2;PMS_P1;PMS_P2;Temp;Humidity;BMP_temperature;BMP_pressure;BME280_temperature;BME280_humidity;BME280_pressure;Samples;Min_cycle;Max_cycle;Signal;HPM_P1;HPM_P2
2022/04/09 00:01:00;;;;;;;7.88;2.80;;;;;;;2.34;76.13;98845.69;8600026;33;20379;-75
2022/04/09 00:06:05;;;;;;;6.90;3.00;;;;;;;2.38;75.86;98858.59;8601300;33;20144;-75
2022/04/09 00:11:09;;;;;;;8.18;3.40;;;;;;;2.32;76.05;98860.84;8598272;33;20442;-75
2022/04/09 00:16:12;;;;;;;5.82;2.25;;;;;;;2.36;75.77;98865.00;8598723;33;20485;-75
2022/04/09 00:21:17;;;;;;;7.43;2.90;;;;;;;2.45;75.50;98882.03;8598557;33;20470;-74
2022/04/09 00:26:20;;;;;;;4.65;2.75;;;;;;;2.25;75.83;98891.38;8600496;33;20178;-75
2022/04/09 00:31:23;;;;;;;5.90;2.65;;;;;;;2.10;76.43;98902.09;8601991;33;20187;-75
2022/04/09 00:36:28;;;;;;;6.85;2.85;;;;;;;2.34;75.95;98902.19;8623832;33;20426;-74
2022/04/09 00:41:32;;;;;;;8.77;2.58;;;;;;;2.12;76.68;98902.84;8601330;33;21956;-74
2022/04/09 00:46:35;;;;;;;5.47;2.25;;;;;;;2.13;77.09;98915.13;8595267;33;20174;-75
2022/04/09 00:51:42;;;;;;;7.57;3.38;;;;;;;2.04;77.54;98925.53;8594910;33;20461;-74
2022/04/09 00:56:47;;;;;;;4.32;2.17;;;;;;;1.94;78.16;98933.25;8593870;33;20411;-74
2022/04/09 01:01:54;;;;;;;6.40;3.17;;;;;;;1.99;78.15;98943.53;8593855;33;20128;-74
2022/04/09 01:07:00;;;;;;;5.90;3.45;;;;;;;2.20;77.70;98951.81;8594309;33;20651;-75
2022/04/09 01:12:05;;;;;;;5.25;3.15;;;;;;;2.02;77.91;98969.81;8592566;33;20909;-75
2022/04/09 01:17:10;;;;;;;8.93;3.20;;;;;;;2.18;78.26;98981.03;8589452;33;21348;-75
2022/04/09 01:22:15;;;;;;;10.90;4.80;;;;;;;2.23;78.09;98984.22;8621365;33;20407;-75
2022/04/09 01:27:18;;;;;;;4.25;3.05;;;;;;;2.08;78.55;98991.41;8597507;33;21501;-75
2022/04/09 01:32:21;;;;;;;8.27;3.28;;;;;;;2.17;78.39;99000.56;8593281;33;20135;-74
2022/04/09 01:37:26;;;;;;;9.95;3.17;;;;;;;2.07;78.66;99010.91;8591868;33;21222;-75
2022/04/09 01:42:29;;;;;;;8.73;3.58;;;;;;;2.11;78.63;99012.41;8596664;33;20255;-75
2022/04/09 01:47:40;;;;;;;6.47;3.05;;;;;;;2.20;78.60;99015.41;8596794;33;20671;-75
2022/04/09 01:52:45;;;;;;;12.57;3.15;;;;;;;2.04;78.87;99039.41;8600515;33;20139;-74
2022/04/09 01:57:50;;;;;;;1.75;1.35;;;;;;;1.70;80.12;99036.34;8602942;33;20262;-75
2022/04/09 02:02:57;;;;;;;9.65;3.03;;;;;;;1.97;78.96;99062.78;8602972;33;20151;-75
2022/04/09 02:08:02;;;;;;;4.97;2.47;;;;;;;1.68;79.88;99059.44;8602679;33;20414;-75
2022/04/09 02:13:12;;;;;;;10.63;3.40;;;;;;;2.10;79.50;99068.97;8599157;33;20171;-75
2022/04/09 02:18:16;;;;;;;16.58;3.90;;;;;;;2.05;79.19;99081.69;8600005;33;20454;-74
2022/04/09 02:23:20;;;;;;;6.70;3.08;;;;;;;1.77;80.47;99095.06;8600521;33;20174;-75
2022/04/09 02:28:23;;;;;;;5.60;2.88;;;;;;;2.02;79.48;99094.28;8605082;33;21330;-75
2022/04/09 02:33:28;;;;;;;5.77;2.83;;;;;;;2.04;79.91;99108.28;8609412;33;20473;-75
2022/04/09 02:38:33;;;;;;;7.95;3.20;;;;;;;2.11;80.10;99117.50;8600398;33;20949;-74
2022/04/09 02:43:37;;;;;;;11.88;3.78;;;;;;;2.00;81.76;99123.50;8603685;33;20424;-75
2022/04/09 02:48:41;;;;;;;9.13;2.75;;;;;;;1.80;82.30;99134.56;8602520;33;20186;-74
2022/04/09 02:53:48;;;;;;;10.63;4.15;;;;;;;1.74;83.26;99143.75;8599891;33;20442;-76
2022/04/09 02:58:52;;;;;;;5.57;3.07;;;;;;;1.60;83.01;99152.56;8596801;33;20329;-75
2022/04/09 03:03:55;;;;;;;13.07;4.25;;;;;;;1.80;82.69;99164.53;8619467;33;20534;-76
2022/04/09 03:09:00;;;;;;;9.75;4.20;;;;;;;1.87;82.67;99170.31;8588445;33;20407;-76
2022/04/09 03:14:03;;;;;;;8.13;4.40;;;;;;;1.73;82.95;99173.84;8591628;33;20174;-75
2022/04/09 03:19:06;;;;;;;10.75;3.88;;;;;;;1.96;82.53;99182.94;8586303;33;21817;-75
2022/04/09 03:24:11;;;;;;;7.82;4.32;;;;;;;1.98;83.15;99193.44;8586676;33;20486;-76
2022/04/09 03:29:15;;;;;;;11.40;4.70;;;;;;;2.01;82.85;99203.84;8588441;33;20179;-76
2022/04/09 03:34:20;;;;;;;12.45;3.33;;;;;;;2.04;82.78;99206.28;8589008;33;20618;-76
2022/04/09 03:39:25;;;;;;;8.23;4.25;;;;;;;2.05;82.60;99210.63;8590984;33;20452;-75
2022/04/09 03:44:28;;;;;;;12.60;4.03;;;;;;;2.08;82.47;99216.56;8595317;33;20148;-75
2022/04/09 03:49:33;;;;;;;5.78;3.53;;;;;;;2.03;82.26;99228.41;8599232;33;20497;-75
2022/04/09 03:54:38;;;;;;;5.55;2.70;;;;;;;1.87;82.00;99244.44;8628871;33;20587;-76
2022/04/09 03:59:43;;;;;;;5.50;2.53;;;;;;;2.11;81.20;99250.84;8612847;33;20139;-75
2022/04/09 04:04:47;;;;;;;9.05;3.75;;;;;;;2.17;81.50;99245.13;8612735;33;20526;-75
2022/04/09 04:09:52;;;;;;;7.55;3.10;;;;;;;2.12;81.38;99260.47;8609588;33;20143;-74
2022/04/09 04:14:55;;;;;;;9.27;3.70;;;;;;;2.04;81.80;99268.06;8600293;33;20420;-75
2022/04/09 04:20:02;;;;;;;13.93;4.53;;;;;;;2.25;81.53;99271.16;8600313;33;20140;-75
2022/04/09 04:25:09;;;;;;;6.45;3.42;;;;;;;2.04;81.75;99286.59;8598102;33;20486;-75
2022/04/09 04:30:14;;;;;;;13.77;4.70;;;;;;;1.95;82.86;99290.69;8594375;33;20197;-74
2022/04/09 04:35:17;;;;;;;9.05;3.55;;;;;;;2.02;82.60;99301.72;8594089;33;20415;-74
2022/04/09 04:40:23;;;;;;;7.90;4.03;;;;;;;2.14;81.86;99308.94;8595851;33;20147;-74
2022/04/09 04:45:32;;;;;;;7.75;3.70;;;;;;;2.06;81.66;99316.50;8596588;33;20442;-75
2022/04/09 04:50:38;;;;;;;6.38;2.67;;;;;;;2.01;81.37;99334.47;8617177;33;21728;-74
2022/04/09 04:55:46;;;;;;;9.52;4.30;;;;;;;2.20;80.86;99350.09;8591513;33;20170;-75
2022/04/09 05:00:51;;;;;;;8.35;3.40;;;;;;;2.14;81.55;99355.78;8592076;33;20155;-74
2022/04/09 05:05:56;;;;;;;9.13;3.95;;;;;;;2.20;81.39;99358.03;8592008;33;20410;-74
2022/04/09 05:11:01;;;;;;;7.70;3.45;;;;;;;2.28;80.64;99371.66;8592466;33;20412;-74
2022/04/09 05:16:08;;;;;;;3.13;2.63;;;;;;;1.86;82.09;99373.34;8592888;33;20182;-74
2022/04/09 05:21:17;;;;;;;6.85;3.47;;;;;;;1.93;82.03;99382.63;8583437;33;20422;-74
2022/04/09 05:26:22;;;;;;;9.68;3.47;;;;;;;2.16;81.24;99401.53;8587527;33;20443;-74
2022/04/09 05:31:27;;;;;;;6.25;3.33;;;;;;;2.09;80.66;99395.78;8594441;33;20495;-74
2022/04/09 05:36:32;;;;;;;6.47;2.47;;;;;;;2.38;79.81;99403.72;8602042;33;20452;-74
2022/04/09 05:41:41;;;;;;;9.00;3.28;;;;;;;2.22;80.79;99417.06;8609828;33;20404;-74
2022/04/09 05:46:45;;;;;;;10.13;4.15;;;;;;;2.47;79.34;99418.19;8628147;33;20411;-73
2022/04/09 05:51:49;;;;;;;6.55;3.13;;;;;;;2.47;79.57;99428.78;8599531;33;20190;-74
2022/04/09 05:56:55;;;;;;;5.75;2.33;;;;;;;2.49;78.90;99437.50;8597584;33;20988;-74
2022/04/09 06:02:02;;;;;;;2.63;2.22;;;;;;;2.36;79.30;99448.03;8621228;33;20708;-74
2022/04/09 06:07:05;;;;;;;6.65;1.90;;;;;;;2.47;78.81;99465.91;8596199;33;20418;-74
2022/04/09 06:12:18;;;;;;;7.63;2.92;;;;;;;2.57;78.41;99467.91;8596561;33;20465;-74
2022/04/09 06:17:37;;;;;;;5.95;2.97;;;;;;;2.35;78.89;99472.81;8596348;33;20193;-74
2022/04/09 06:22:41;;;;;;;6.63;2.67;;;;;;;3.06;76.49;99493.13;8597888;33;20652;-74
2022/04/09 06:27:46;;;;;;;6.57;2.55;;;;;;;3.34;74.98;99481.59;8595202;33;20527;-73
2022/04/09 06:32:50;;;;;;;8.68;2.92;;;;;;;2.74;77.50;99504.00;8599208;33;20415;-74
2022/04/09 06:37:54;;;;;;;9.45;2.95;;;;;;;3.00;76.59;99510.31;8601277;33;20158;-73
2022/04/09 06:42:59;;;;;;;2.33;1.83;;;;;;;2.71;77.06;99511.28;8602202;33;20569;-74
2022/04/09 06:48:20;;;;;;;7.70;2.70;;;;;;;2.87;76.33;99517.34;8602988;33;21814;-74
2022/04/09 06:53:42;;;;;;;5.40;3.25;;;;;;;2.77;76.27;99529.47;8603290;33;20144;-74
2022/04/09 06:58:46;;;;;;;4.25;2.38;;;;;;;2.92;75.87;99535.63;8600021;33;20162;-74
2022/04/09 07:03:49;;;;;;;9.00;2.88;;;;;;;2.91;75.68;99548.03;8624905;33;21073;-74
2022/04/09 07:08:57;;;;;;;9.77;2.92;;;;;;;3.76;73.72;99540.81;8625169;33;20975;-74
2022/04/09 07:14:01;;;;;;;4.25;2.05;;;;;;;3.54;73.31;99552.00;8601885;33;21109;-74
2022/04/09 07:19:07;;;;;;;3.78;2.25;;;;;;;3.37;73.69;99550.41;8593142;33;20414;-74
2022/04/09 07:24:12;;;;;;;6.63;2.45;;;;;;;3.48;73.44;99566.53;8592857;33;20531;-74
2022/04/09 07:29:17;;;;;;;4.72;2.40;;;;;;;3.70;72.76;99573.06;8595452;33;20186;-74
2022/04/09 07:34:20;;;;;;;6.22;2.50;;;;;;;3.70;73.44;99599.63;8625000;33;20220;-75
2022/04/09 07:39:23;;;;;;;9.50;2.47;;;;;;;3.69;73.45;99582.00;8539001;33;20164;-73
2022/04/09 07:44:27;;;;;;;2.60;1.90;;;;;;;3.63;72.86;99593.88;8556970;32;20194;-74
2022/04/09 07:49:30;;;;;;;7.22;2.47;;;;;;;3.75;72.23;99607.31;8592336;32;20436;-74
2022/04/09 07:54:33;;;;;;;7.60;2.40;;;;;;;4.34;70.69;99595.38;8634893;32;20532;-74
2022/04/09 07:59:38;;;;;;;4.82;2.65;;;;;;;4.12;71.81;99600.44;8595896;33;20449;-74
2022/04/09 08:04:41;;;;;;;3.03;2.00;;;;;;;4.45;70.42;99605.28;8592609;33;21264;-74
2022/04/09 08:09:44;;;;;;;7.25;2.88;;;;;;;4.28;71.08;99608.22;8613552;33;21000;-74
2022/04/09 08:14:49;;;;;;;3.38;1.70;;;;;;;4.54;69.11;99601.16;8592194;33;20422;-74
2022/04/09 08:19:52;;;;;;;6.18;2.30;;;;;;;4.34;68.89;99608.66;8592514;33;20403;-74
2022/04/09 08:24:56;;;;;;;5.55;2.25;;;;;;;4.25;69.75;99632.34;8593070;33;21405;-74
2022/04/09 08:30:01;;;;;;;6.85;3.35;;;;;;;4.85;67.86;99634.47;8599651;33;20478;-74
2022/04/09 08:35:05;;;;;;;6.88;3.10;;;;;;;5.25;66.62;99629.06;8598996;33;20488;-74
2022/04/09 08:40:14;;;;;;;3.90;1.45;;;;;;;5.32;65.85;99637.44;8595243;33;20246;-74
2022/04/09 08:45:18;;;;;;;5.40;1.83;;;;;;;5.27;65.10;99630.66;8599882;32;20184;-74
2022/04/09 08:50:23;;;;;;;2.97;1.75;;;;;;;5.45;65.94;99640.94;8654234;32;20428;-74
2022/04/09 08:55:26;;;;;;;2.15;1.73;;;;;;;5.10;67.86;99670.06;8649696;32;20894;-74
2022/04/09 09:00:31;;;;;;;4.20;2.10;;;;;;;3.82;72.83;99646.66;8654170;32;20424;-74
2022/04/09 09:05:37;;;;;;;4.53;1.73;;;;;;;3.43;78.63;99664.19;8670314;32;20414;-74
2022/04/09 09:10:42;;;;;;;2.75;2.40;;;;;;;3.98;75.82;99656.28;8670212;32;20404;-74
2022/04/09 09:15:52;;;;;;;3.50;2.22;;;;;;;4.89;73.64;99662.59;8660060;32;20633;-73
2022/04/09 09:20:59;;;;;;;8.50;2.15;;;;;;;5.16;70.41;99672.31;8660692;32;20420;-74
2022/04/09 09:26:03;;;;;;;4.75;2.13;;;;;;;4.79;68.23;99675.66;8658952;32;21814;-74
2022/04/09 09:31:08;;;;;;;4.93;2.03;;;;;;;4.94;67.58;99686.22;8659473;32;20497;-74
2022/04/09 09:36:11;;;;;;;8.70;3.00;;;;;;;6.36;65.01;99673.38;8662459;32;21803;-75
2022/04/09 09:41:24;;;;;;;2.88;2.47;;;;;;;6.15;64.39;99691.81;8662555;32;20503;-74
2022/04/09 09:46:28;;;;;;;6.43;1.80;;;;;;;5.82;63.60;99678.28;8663377;32;20200;-74
2022/04/09 09:51:32;;;;;;;4.18;2.38;;;;;;;5.74;64.08;99657.50;8662927;32;20467;-74
2022/04/09 09:56:37;;;;;;;4.65;2.08;;;;;;;7.32;61.46;99684.78;8659158;32;20142;-75
2022/04/09 10:01:44;;;;;;;2.42;1.83;;;;;;;6.68;59.66;99643.38;8647461;32;21132;-73
2022/04/09 10:06:47;;;;;;;3.65;2.03;;;;;;;7.59;57.88;99653.19;8621603;32;20422;-74
2022/04/09 10:11:54;;;;;;;5.65;1.50;;;;;;;7.65;55.42;99659.88;8628791;32;20507;-74
2022/04/09 10:16:59;;;;;;;6.22;1.67;;;;;;;6.80;59.41;99660.25;8663950;32;20815;-74
2022/04/09 10:22:02;;;;;;;2.65;1.38;;;;;;;8.00;54.73;99662.34;8672201;32;22640;-74
2022/04/09 10:27:07;;;;;;;3.20;1.42;;;;;;;9.37;53.54;99649.00;8678677;32;20420;-74
2022/04/09 10:32:11;;;;;;;3.63;1.90;;;;;;;7.62;58.49;99663.63;8678515;32;20182;-74
2022/04/09 10:37:14;;;;;;;3.03;1.70;;;;;;;7.52;57.29;99677.88;8678388;32;20996;-74
2022/04/09 10:42:49;;;;;;;3.10;1.52;;;;;;;4.76;70.47;99706.94;8660345;32;20983;-74
2022/04/09 10:48:14;;;;;;;1.92;1.40;;;;;;;5.02;76.78;99705.22;8591404;32;20435;-75
2022/04/09 10:53:17;;;;;;;3.92;2.08;;;;;;;5.12;75.67;99708.94;8613222;33;20190;-75
2022/04/09 10:58:21;;;;;;;3.67;1.92;;;;;;;5.61;71.76;99710.81;8603194;33;20946;-74
2022/04/09 11:03:35;;;;;;;1.73;1.48;;;;;;;6.32;70.38;99705.72;8603358;33;20459;-73
2022/04/09 11:08:41;;;;;;;1.88;1.33;;;;;;;7.58;65.04;99709.47;8574858;33;20820;-74
2022/04/09 11:13:44;;;;;;;3.63;1.30;;;;;;;8.30;61.95;99692.94;8595310;33;20181;-75
2022/04/09 11:18:49;;;;;;;3.35;1.70;;;;;;;8.13;59.11;99688.97;8651298;32;20185;-74
2022/04/09 11:24:05;;;;;;;1.23;1.13;;;;;;;7.64;59.47;99687.56;8654299;32;20440;-74
2022/04/09 11:29:12;;;;;;;3.83;1.50;;;;;;;9.20;58.75;99671.91;8654765;32;21227;-74
2022/04/09 11:34:16;;;;;;;3.70;1.70;;;;;;;10.03;57.33;99677.19;8655474;32;20865;-74
2022/04/09 11:39:20;;;;;;;2.55;1.45;;;;;;;8.37;55.44;99691.44;8650960;32;20258;-73
2022/04/09 11:44:30;;;;;;;2.42;1.50;;;;;;;9.22;51.70;99680.69;8624413;33;20498;-75
2022/04/09 11:49:34;;;;;;;1.30;1.20;;;;;;;9.81;53.04;99670.19;8588179;33;20132;-75
2022/04/09 11:54:39;;;;;;;3.53;1.52;;;;;;;7.16;64.34;99723.38;8594295;33;20436;-74
2022/04/09 11:59:42;;;;;;;2.80;1.60;;;;;;;3.85;80.92;99760.72;8595859;33;20951;-76
2022/04/09 12:04:47;;;;;;;3.00;1.30;;;;;;;4.67;80.64;99761.63;8600018;33;20919;-75
2022/04/09 12:09:50;;;;;;;2.13;1.20;;;;;;;6.62;66.84;99755.94;8595860;33;20432;-76
2022/04/09 12:15:00;;;;;;;2.70;1.23;;;;;;;6.29;66.28;99762.81;8596085;33;20433;-76
2022/04/09 12:20:33;;;;;;;1.60;1.20;;;;;;;6.24;69.84;99802.28;8585158;33;20209;-75
2022/04/09 12:25:39;;;;;;;1.65;0.95;;;;;;;7.78;66.14;99814.81;8592099;33;20598;-75
2022/04/09 12:30:45;;;;;;;2.25;1.08;;;;;;;7.50;67.19;99819.63;8642492;33;20131;-75
2022/04/09 12:35:49;;;;;;;1.60;1.42;;;;;;;6.85;69.04;99840.47;8623800;33;20142;-75
2022/04/09 12:41:01;;;;;;;1.20;1.10;;;;;;;6.56;67.61;99849.81;8653404;33;20655;-75
2022/04/09 12:46:07;;;;;;;2.35;1.20;;;;;;;7.42;65.48;99835.41;8631835;33;20485;-75
2022/04/09 12:51:13;;;;;;;1.98;1.20;;;;;;;7.61;65.56;99840.19;8659289;33;20546;-75
2022/04/09 12:56:18;;;;;;;2.20;1.02;;;;;;;7.66;65.68;99872.75;8634313;33;20333;-75
2022/04/09 13:01:22;;;;;;;4.00;1.13;;;;;;;5.86;67.86;99864.50;8661484;33;20420;-75
2022/04/09 13:06:28;;;;;;;1.80;0.90;;;;;;;4.59;74.25;99896.94;8634007;33;20245;-75
2022/04/09 13:11:31;;;;;;;2.25;1.20;;;;;;;3.21;78.14;99910.66;8630961;33;20462;-75
2022/04/09 13:16:34;;;;;;;4.15;1.42;;;;;;;1.98;79.69;99933.34;8660661;33;20220;-75
2022/04/09 13:21:38;;;;;;;2.87;1.30;;;;;;;1.19;82.55;99954.13;8669206;33;20157;-75
2022/04/09 13:26:41;;;;;;;1.30;1.20;;;;;;;0.32;84.83;99973.16;8659375;33;20930;-76
2022/04/09 13:31:46;;;;;;;3.20;1.50;;;;;;;0.20;88.10;99980.78;8659464;33;20460;-75
2022/04/09 13:36:50;;;;;;;0.63;0.63;;;;;;;0.59;90.17;99971.03;8658133;33;20532;-76
2022/04/09 13:41:54;;;;;;;0.40;0.40;;;;;;;0.95;89.76;99946.44;8660264;33;20403;-76
2022/04/09 13:46:57;;;;;;;0.50;0.50;;;;;;;1.48;91.15;99948.25;8634221;33;20186;-76
2022/04/09 13:52:03;;;;;;;0.60;0.60;;;;;;;3.12;95.48;99929.78;8664146;33;20154;-76
2022/04/09 13:57:07;;;;;;;1.20;1.20;;;;;;;4.11;89.24;99928.31;8675216;33;20432;-76
2022/04/09 14:02:10;;;;;;;3.20;1.30;;;;;;;4.95;82.24;99930.13;8676277;33;20138;-76
2022/04/09 14:07:15;;;;;;;0.40;0.40;;;;;;;5.38;78.82;99940.66;8650817;33;20525;-76
2022/04/09 14:12:18;;;;;;;1.55;1.40;;;;;;;5.98;77.51;99925.94;8680945;33;20150;-76
2022/04/09 14:17:21;;;;;;;2.17;1.63;;;;;;;5.33;76.85;99929.47;8681343;33;20251;-76
2022/04/09 14:22:25;;;;;;;4.13;2.42;;;;;;;5.81;74.92;99933.28;8684482;33;20185;-76
2022/04/09 14:27:28;;;;;;;4.45;2.20;;;;;;;4.21;77.06;99956.06;8682785;33;20397;-76
2022/04/09 14:32:31;;;;;;;2.70;1.70;;;;;;;3.63;80.06;99965.72;8680869;33;20550;-76
2022/04/09 14:37:36;;;;;;;2.53;1.70;;;;;;;3.28;80.65;99981.03;8677399;33;21002;-76
2022/04/09 14:42:44;;;;;;;2.53;1.38;;;;;;;2.98;84.13;99967.72;8677790;33;22260;-76
2022/04/09 14:47:47;;;;;;;0.95;0.95;;;;;;;2.25;83.07;99980.50;8667134;33;20474;-76
2022/04/09 14:52:52;;;;;;;2.60;1.35;;;;;;;2.61;82.88;99978.56;8669419;33;20461;-76
2022/04/09 14:57:56;;;;;;;1.50;1.40;;;;;;;3.14;81.93;99967.72;8666949;33;21951;-76
2022/04/09 15:02:59;;;;;;;1.90;1.48;;;;;;;4.73;78.70;99976.75;8661090;33;21529;-76
2022/04/09 15:08:04;;;;;;;1.80;1.30;;;;;;;4.91;74.56;99972.06;8659362;33;20259;-76
2022/04/09 15:13:07;;;;;;;1.60;1.10;;;;;;;5.41;73.50;99967.09;8661647;33;20403;-76
2022/04/09 15:18:11;;;;;;;3.03;1.25;;;;;;;5.00;72.62;99970.66;8646645;33;20447;-75
2022/04/09 15:23:16;;;;;;;3.30;1.50;;;;;;;5.41;75.04;99967.94;8658298;33;20419;-75
2022/04/09 15:28:19;;;;;;;1.75;1.65;;;;;;;5.37;74.06;99986.88;8656944;33;21415;-76
2022/04/09 15:33:22;;;;;;;1.52;1.10;;;;;;;4.32;76.48;99984.63;8657298;33;20199;-75
2022/04/09 15:38:26;;;;;;;1.52;1.42;;;;;;;5.47;73.64;99980.84;8634232;33;20536;-75
2022/04/09 15:43:29;;;;;;;4.00;1.55;;;;;;;5.91;73.04;99995.69;8634047;33;20528;-75
2022/04/09 15:48:32;;;;;;;1.70;1.25;;;;;;;4.99;72.22;100015.06;8658561;33;20421;-75
2022/04/09 15:53:37;;;;;;;2.45;1.40;;;;;;;4.57;74.89;100013.25;8654549;33;20504;-76
2022/04/09 15:58:40;;;;;;;2.13;1.65;;;;;;;4.30;76.71;100018.44;8632219;33;20591;-75
2022/04/09 16:03:43;;;;;;;1.70;1.58;;;;;;;4.27;78.74;100023.94;8658843;33;21244;-75
2022/04/09 16:08:48;;;;;;;2.80;1.83;;;;;;;5.09;85.19;100019.78;8660055;33;21072;-75
2022/04/09 16:13:52;;;;;;;4.05;2.17;;;;;;;4.85;81.17;100012.34;8659321;33;20196;-75
2022/04/09 16:18:55;;;;;;;2.65;1.80;;;;;;;4.35;78.65;100025.19;8633364;33;21172;-75
2022/04/09 16:24:01;;;;;;;4.15;1.80;;;;;;;3.71;80.78;100050.28;8656434;33;20397;-76
2022/04/09 16:29:04;;;;;;;1.95;1.85;;;;;;;3.53;80.97;100030.94;8657177;33;20772;-75
2022/04/09 16:34:07;;;;;;;7.40;1.70;;;;;;;3.07;80.64;100033.53;8660673;33;20427;-76
2022/04/09 16:39:12;;;;;;;4.47;1.80;;;;;;;2.73;83.24;100063.72;8663079;33;20412;-75
2022/04/09 16:44:15;;;;;;;2.45;1.38;;;;;;;2.50;88.26;100067.56;8663392;33;20527;-76
2022/04/09 16:49:19;;;;;;;1.67;1.58;;;;;;;3.19;90.36;100096.56;8652929;33;20475;-76
2022/04/09 16:54:23;;;;;;;2.20;1.75;;;;;;;4.33;92.08;100079.41;8651919;33;20622;-76
2022/04/09 16:59:26;;;;;;;3.53;1.70;;;;;;;5.46;89.51;100072.41;8626436;33;20601;-76
2022/04/09 17:04:29;;;;;;;1.50;1.40;;;;;;;4.82;83.45;100074.63;8631339;33;20505;-76
2022/04/09 17:09:34;;;;;;;2.90;1.70;;;;;;;4.08;83.67;100088.00;8659459;33;20917;-76
2022/04/09 17:14:37;;;;;;;1.70;1.60;;;;;;;3.42;83.77;100081.16;8653133;33;20223;-76
2022/04/09 17:19:40;;;;;;;2.08;1.60;;;;;;;2.64;84.16;100096.88;8654247;33;20207;-76
2022/04/09 17:24:45;;;;;;;2.65;1.40;;;;;;;2.65;83.49;100106.53;8660826;33;20251;-76
2022/04/09 17:29:48;;;;;;;1.65;1.55;;;;;;;2.38;82.71;100112.31;8664403;33;20200;-76
2022/04/09 17:34:51;;;;;;;2.53;1.50;;;;;;;2.54;81.80;100100.94;8666861;33;20178;-76
2022/04/09 17:39:55;;;;;;;4.00;2.38;;;;;;;2.43;81.35;100121.81;8642817;33;20864;-75
2022/04/09 17:44:58;;;;;;;3.80;1.85;;;;;;;2.06;81.81;100111.31;8678203;33;20478;-75
2022/04/09 17:50:01;;;;;;;5.82;2.13;;;;;;;2.07;81.46;100118.31;8681338;33;20979;-75
2022/04/09 17:55:07;;;;;;;2.50;1.70;;;;;;;2.04;80.50;100105.22;8681561;33;20402;-75
2022/04/09 18:00:12;;;;;;;1.70;1.53;;;;;;;1.87;79.51;100107.88;8683643;33;20204;-75
2022/04/09 18:05:15;;;;;;;4.53;1.73;;;;;;;1.61;78.73;100117.91;8685298;33;20186;-75
2022/04/09 18:10:20;;;;;;;3.55;1.63;;;;;;;1.70;79.38;100127.19;8683872;33;20143;-76
2022/04/09 18:15:23;;;;;;;4.63;2.35;;;;;;;1.62;77.95;100134.66;8677174;33;20186;-76
2022/04/09 18:20:27;;;;;;;2.20;1.60;;;;;;;1.86;78.65;100137.91;8676038;33;20225;-75
2022/04/09 18:25:34;;;;;;;3.87;2.03;;;;;;;1.57;78.46;100144.63;8674178;33;20697;-76
2022/04/09 18:30:38;;;;;;;2.40;1.97;;;;;;;1.42;79.23;100157.63;8671733;33;20178;-75
2022/04/09 18:35:43;;;;;;;4.03;2.00;;;;;;;1.36;78.93;100168.50;8669905;33;21875;-75
2022/04/09 18:40:48;;;;;;;3.83;1.93;;;;;;;1.52;79.04;100176.59;8668342;33;20449;-76
2022/04/09 18:45:52;;;;;;;2.95;1.95;;;;;;;1.64;78.44;100181.31;8676064;33;20154;-76
2022/04/09 18:50:55;;;;;;;3.77;1.97;;;;;;;1.40;79.06;100195.69;8656937;32;22276;-76
2022/04/09 18:56:00;;;;;;;3.55;2.15;;;;;;;1.62;79.24;100200.84;8641103;33;20410;-76
2022/04/09 19:01:09;;;;;;;3.67;2.33;;;;;;;1.57;79.35;100208.16;8633939;33;20182;-77
2022/04/09 19:06:12;;;;;;;5.95;2.30;;;;;;;1.56;79.83;100215.22;8651661;33;21102;-77
2022/04/09 19:11:17;;;;;;;2.47;2.27;;;;;;;1.50;80.08;100226.97;8657296;33;20476;-77
2022/04/09 19:16:20;;;;;;;4.77;2.40;;;;;;;1.72;79.72;100224.19;8653587;33;20293;-77
2022/04/09 19:21:23;;;;;;;7.97;3.63;;;;;;;1.79;79.72;100231.84;8655742;33;20467;-77
2022/04/09 19:26:28;;;;;;;3.60;2.60;;;;;;;1.58;80.09;100225.75;8655137;33;20423;-77
2022/04/09 19:31:31;;;;;;;3.47;2.33;;;;;;;1.94;79.07;100223.16;8630080;33;20170;-78
2022/04/09 19:36:36;;;;;;;3.17;2.25;;;;;;;1.80;79.08;100229.13;8629556;33;20472;-76
2022/04/09 19:41:41;;;;;;;10.45;3.25;;;;;;;1.84;79.87;100228.06;8636647;33;20673;-77
2022/04/09 19:46:44;;;;;;;4.25;2.50;;;;;;;1.69;79.66;100231.41;8660020;33;20634;-77
2022/04/09 19:51:47;;;;;;;4.78;2.00;;;;;;;1.31;80.89;100241.97;8664160;33;20185;-77
2022/04/09 19:56:52;;;;;;;3.42;2.50;;;;;;;1.35;80.51;100246.22;8658994;33;20186;-77
2022/04/09 20:01:55;;;;;;;3.53;2.17;;;;;;;1.36;80.85;100247.91;8657073;33;20404;-77
2022/04/09 20:06:58;;;;;;;3.33;2.45;;;;;;;1.17;81.16;100247.03;8649046;33;20413;-77
2022/04/09 20:12:03;;;;;;;2.60;2.13;;;;;;;1.15;81.42;100236.53;8659622;33;21119;-77
2022/04/09 20:17:06;;;;;;;3.43;2.60;;;;;;;0.98;82.62;100245.16;8659844;33;20466;-77
2022/04/09 20:22:09;;;;;;;3.73;2.93;;;;;;;0.85;83.69;100246.66;8634738;33;20556;-77
2022/04/09 20:27:14;;;;;;;8.60;3.67;;;;;;;1.14;82.88;100252.44;8626891;33;20438;-77
2022/04/09 20:32:18;;;;;;;8.07;3.30;;;;;;;1.03;82.57;100248.47;8632745;33;20254;-77
2022/04/09 20:37:21;;;;;;;5.18;3.00;;;;;;;1.09;82.95;100257.06;8656785;33;20494;-77
2022/04/09 20:42:26;;;;;;;8.10;3.20;;;;;;;1.10;82.75;100262.31;8662981;33;21081;-78
2022/04/09 20:47:29;;;;;;;7.10;3.60;;;;;;;1.21;82.74;100270.63;8663702;33;20138;-78
2022/04/09 20:52:32;;;;;;;4.53;2.90;;;;;;;1.33;81.98;100277.16;8660729;33;20200;-78
2022/04/09 20:57:36;;;;;;;8.83;4.63;;;;;;;1.22;81.59;100288.22;8658027;33;20142;-78
2022/04/09 21:02:39;;;;;;;9.07;3.83;;;;;;;1.40;80.22;100281.28;8639388;33;21441;-78
2022/04/09 21:07:43;;;;;;;10.50;4.53;;;;;;;0.97;80.50;100288.44;8666252;33;21143;-78
2022/04/09 21:12:48;;;;;;;2.67;1.85;;;;;;;0.88;79.79;100291.47;8664802;33;20185;-78
2022/04/09 21:17:51;;;;;;;7.63;3.40;;;;;;;1.17;79.37;100289.34;8670192;33;20211;-78
2022/04/09 21:22:54;;;;;;;2.55;2.30;;;;;;;0.98;78.90;100297.22;8647874;33;20181;-77
2022/04/09 21:27:59;;;;;;;6.20;3.13;;;;;;;1.25;78.78;100303.09;8660327;33;20570;-77
2022/04/09 21:33:07;;;;;;;6.67;3.03;;;;;;;0.96;79.01;100305.25;8660994;33;20209;-77
2022/04/09 21:38:10;;;;;;;8.27;2.75;;;;;;;1.02;79.76;100304.97;8638525;33;20233;-77
2022/04/09 21:43:15;;;;;;;3.22;2.47;;;;;;;1.08;79.03;100313.56;8638784;33;21268;-77
2022/04/09 21:48:18;;;;;;;8.60;2.83;;;;;;;0.98;79.25;100316.59;8663803;33;21562;-77
2022/04/09 21:53:21;;;;;;;3.90;2.37;;;;;;;0.93;79.96;100334.44;8664701;33;20416;-77
2022/04/09 21:58:26;;;;;;;3.65;2.58;;;;;;;0.65;81.16;100326.78;8663337;33;20512;-77
2022/04/09 22:03:29;;;;;;;2.93;2.30;;;;;;;0.60;81.22;100341.97;8663058;33;20411;-77
2022/04/09 22:08:33;;;;;;;4.87;2.97;;;;;;;0.66;81.00;100351.44;8662625;33;20568;-77
2022/04/09 22:13:37;;;;;;;8.13;3.25;;;;;;;0.64;81.52;100355.94;8662745;33;20192;-77
2022/04/09 22:18:40;;;;;;;6.77;2.80;;;;;;;0.69;81.26;100354.00;8662739;33;20398;-77
2022/04/09 22:23:44;;;;;;;4.40;2.97;;;;;;;0.49;81.88;100357.41;8663352;33;20467;-77
2022/04/09 22:28:48;;;;;;;6.27;2.67;;;;;;;0.23;82.16;100369.00;8663875;33;20286;-77
2022/04/09 22:33:51;;;;;;;6.70;3.30;;;;;;;0.46;82.02;100368.97;8636755;33;20467;-77
2022/04/09 22:38:55;;;;;;;6.03;2.57;;;;;;;0.48;81.59;100369.78;8659584;33;20515;-76
2022/04/09 22:44:00;;;;;;;5.23;1.87;;;;;;;0.21;82.85;100365.56;8673430;33;20511;-76
2022/04/09 22:49:03;;;;;;;5.40;2.43;;;;;;;0.23;82.99;100377.78;8677095;33;20147;-76
2022/04/09 22:54:06;;;;;;;2.90;2.43;;;;;;;0.36;82.42;100379.06;8642409;33;20444;-76
2022/04/09 22:59:11;;;;;;;2.70;1.77;;;;;;;0.41;82.88;100400.00;8661656;33;20409;-76
2022/04/09 23:04:21;;;;;;;5.43;2.57;;;;;;;0.35;83.32;100398.44;8658938;33;20180;-76
2022/04/09 23:09:24;;;;;;;4.07;1.77;;;;;;;0.36;83.45;100394.06;8675155;33;20177;-76
2022/04/09 23:14:28;;;;;;;5.13;2.23;;;;;;;0.33;83.88;100397.66;8669760;33;20150;-77
2022/04/09 23:19:31;;;;;;;4.23;2.80;;;;;;;0.19;84.24;100401.72;8635346;33;20507;-77
2022/04/09 23:24:34;;;;;;;6.10;3.00;;;;;;;0.38;84.56;100408.94;8660298;33;20470;-77
2022/04/09 23:29:39;;;;;;;11.10;2.40;;;;;;;0.20;83.98;100404.34;8661046;33;21159;-77
2022/04/09 23:34:42;;;;;;;4.53;2.50;;;;;;;0.26;83.76;100412.03;8659171;33;20247;-76
2022/04/09 23:39:45;;;;;;;7.13;3.00;;;;;;;0.57;83.29;100421.41;8658218;33;20191;-77
2022/04/09 23:44:49;;;;;;;23.13;4.37;;;;;;;0.54;83.34;100406.53;8656307;33;20162;-77
2022/04/09 23:49:52;;;;;;;2.83;2.40;;;;;;;0.63;83.45;100417.66;8634400;33;20435;-76
2022/04/09 23:54:55;;;;;;;5.00;2.13;;;;;;;0.61;83.19;100407.16;8633602;33;20508;-76
2022/04/09 23:59:59;;;;;;;5.97;2.40;;;;;;;0.60;82.98;100411.59;8659992;33;20556;-76
